sensor_id;sensor_type;location;lat;lon;timestamp;P1;durP1;ratioP1;P2;durP2;ratioP2
14619;SDS011;32125;48.518;9.050;2023-01-19T00:01:17;29.90;;;20.10;;
14619;SDS011;32125;48.518;9.050;2023-01-19T00:03:43;30.80;;;20.17;;
14619;SDS011;32125;48.518;9.050;2023-01-19T00:06:09;29.17;;;18.90;;
14619;SDS011;32125;48.518;9.050;2023-01-19T00:08:36;29.53;;;19.87;;
14619;SDS011;32125;48.518;9.050;2023-01-19T00:11:03;27.77;;;19.13;;
14619;SDS011;32125;48.518;9.050;2023-01-19T00:13:31;28.33;;;18.27;;
14619;SDS011;32125;48.518;9.050;2023-01-19T00:15:57;28.03;;;18.37;;
14619;SDS011;32125;48.518;9.050;2023-01-19T00:18:23;28.30;;;17.87;;
14619;SDS011;32125;48.518;9.050;2023-01-19T00:20:49;25.53;;;17.23;;
14619;SDS011;32125;48.518;9.050;2023-01-19T00:23:18;26.37;;;17.50;;
14619;SDS011;32125;48.518;9.050;2023-01-19T00:25:47;28.17;;;18.17;;
14619;SDS011;32125;48.518;9.050;2023-01-19T00:28:15;28.47;;;18.00;;
14619;SDS011;32125;48.518;9.050;2023-01-19T00:30:42;27.57;;;18.40;;
14619;SDS011;32125;48.518;9.050;2023-01-19T00:33:09;28.30;;;19.13;;
14619;SDS011;32125;48.518;9.050;2023-01-19T00:35:38;27.70;;;19.00;;
14619;SDS011;32125;48.518;9.050;2023-01-19T00:38:08;28.73;;;18.73;;
14619;SDS011;32125;48.518;9.050;2023-01-19T00:40:34;26.93;;;18.10;;
14619;SDS011;32125;48.518;9.050;2023-01-19T00:43:00;25.87;;;18.87;;
14619;SDS011;32125;48.518;9.050;2023-01-19T00:45:27;28.30;;;18.50;;
14619;SDS011;32125;48.518;9.050;2023-01-19T00:47:53;28.80;;;18.60;;
14619;SDS011;32125;48.518;9.050;2023-01-19T00:50:21;24.57;;;17.40;;
14619;SDS011;32125;48.518;9.050;2023-01-19T00:52:47;24.03;;;16.97;;
14619;SDS011;32125;48.518;9.050;2023-01-19T00:55:14;26.63;;;17.73;;
14619;SDS011;32125;48.518;9.050;2023-01-19T00:57:41;25.20;;;17.23;;
14619;SDS011;32125;48.518;9.050;2023-01-19T01:00:08;27.13;;;18.40;;
14619;SDS011;32125;48.518;9.050;2023-01-19T01:02:37;26.43;;;17.40;;
14619;SDS011;32125;48.518;9.050;2023-01-19T01:05:06;25.43;;;17.23;;
14619;SDS011;32125;48.518;9.050;2023-01-19T01:07:35;26.30;;;17.47;;
14619;SDS011;32125;48.518;9.050;2023-01-19T01:10:08;29.07;;;18.97;;
14619;SDS011;32125;48.518;9.050;2023-01-19T01:12:34;28.83;;;18.47;;
14619;SDS011;32125;48.518;9.050;2023-01-19T01:15:00;27.43;;;18.27;;
14619;SDS011;32125;48.518;9.050;2023-01-19T01:17:26;27.47;;;18.83;;
14619;SDS011;32125;48.518;9.050;2023-01-19T01:19:52;25.83;;;18.00;;
14619;SDS011;32125;48.518;9.050;2023-01-19T01:22:18;30.97;;;18.37;;
14619;SDS011;32125;48.518;9.050;2023-01-19T01:24:44;29.13;;;19.27;;
14619;SDS011;32125;48.518;9.050;2023-01-19T01:27:10;26.67;;;18.20;;
14619;SDS011;32125;48.518;9.050;2023-01-19T01:29:35;29.60;;;18.03;;
14619;SDS011;32125;48.518;9.050;2023-01-19T01:32:03;26.03;;;18.07;;
14619;SDS011;32125;48.518;9.050;2023-01-19T01:34:29;26.03;;;17.73;;
14619;SDS011;32125;48.518;9.050;2023-01-19T01:36:57;26.20;;;17.90;;
14619;SDS011;32125;48.518;9.050;2023-01-19T01:39:23;27.07;;;17.43;;
14619;SDS011;32125;48.518;9.050;2023-01-19T01:41:52;27.93;;;17.83;;
14619;SDS011;32125;48.518;9.050;2023-01-19T01:47:18;27.43;;;18.03;;
14619;SDS011;32125;48.518;9.050;2023-01-19T01:49:50;26.80;;;17.77;;
14619;SDS011;32125;48.518;9.050;2023-01-19T01:52:21;28.13;;;18.07;;
14619;SDS011;32125;48.518;9.050;2023-01-19T01:54:47;27.57;;;18.03;;
14619;SDS011;32125;48.518;9.050;2023-01-19T01:57:14;25.43;;;17.10;;
14619;SDS011;32125;48.518;9.050;2023-01-19T01:59:42;24.53;;;17.43;;
14619;SDS011;32125;48.518;9.050;2023-01-19T02:02:10;27.10;;;17.47;;
14619;SDS011;32125;48.518;9.050;2023-01-19T02:05:02;24.33;;;16.67;;
14619;SDS011;32125;48.518;9.050;2023-01-19T02:10:28;27.00;;;18.03;;
14619;SDS011;32125;48.518;9.050;2023-01-19T02:13:13;28.13;;;19.07;;
14619;SDS011;32125;48.518;9.050;2023-01-19T02:15:47;28.67;;;18.40;;
14619;SDS011;32125;48.518;9.050;2023-01-19T02:18:15;29.00;;;17.77;;
14619;SDS011;32125;48.518;9.050;2023-01-19T02:20:42;26.53;;;17.70;;
14619;SDS011;32125;48.518;9.050;2023-01-19T02:23:29;29.83;;;19.13;;
14619;SDS011;32125;48.518;9.050;2023-01-19T02:25:58;27.73;;;18.70;;
14619;SDS011;32125;48.518;9.050;2023-01-19T02:28:24;32.77;;;19.77;;
14619;SDS011;32125;48.518;9.050;2023-01-19T02:30:51;27.23;;;18.57;;
14619;SDS011;32125;48.518;9.050;2023-01-19T02:33:17;27.87;;;19.83;;
14619;SDS011;32125;48.518;9.050;2023-01-19T02:35:43;29.90;;;20.00;;
14619;SDS011;32125;48.518;9.050;2023-01-19T02:38:10;28.67;;;18.57;;
14619;SDS011;32125;48.518;9.050;2023-01-19T02:40:39;28.27;;;18.67;;
14619;SDS011;32125;48.518;9.050;2023-01-19T02:43:06;28.70;;;18.93;;
14619;SDS011;32125;48.518;9.050;2023-01-19T02:45:33;28.00;;;18.30;;
14619;SDS011;32125;48.518;9.050;2023-01-19T02:47:59;25.60;;;18.37;;
14619;SDS011;32125;48.518;9.050;2023-01-19T02:52:54;25.40;;;18.07;;
14619;SDS011;32125;48.518;9.050;2023-01-19T02:55:31;28.03;;;18.87;;
14619;SDS011;32125;48.518;9.050;2023-01-19T03:05:56;26.77;;;18.33;;
14619;SDS011;32125;48.518;9.050;2023-01-19T03:11:07;28.63;;;19.87;;
14619;SDS011;32125;48.518;9.050;2023-01-19T03:16:19;29.10;;;19.00;;
14619;SDS011;32125;48.518;9.050;2023-01-19T03:18:50;29.63;;;18.93;;
14619;SDS011;32125;48.518;9.050;2023-01-19T03:21:19;28.43;;;19.33;;
14619;SDS011;32125;48.518;9.050;2023-01-19T03:23:52;32.17;;;18.70;;
14619;SDS011;32125;48.518;9.050;2023-01-19T03:26:21;28.70;;;18.60;;
14619;SDS011;32125;48.518;9.050;2023-01-19T03:28:51;27.57;;;18.13;;
14619;SDS011;32125;48.518;9.050;2023-01-19T03:31:22;29.30;;;19.13;;
14619;SDS011;32125;48.518;9.050;2023-01-19T03:33:52;27.80;;;18.70;;
14619;SDS011;32125;48.518;9.050;2023-01-19T03:36:24;29.87;;;19.57;;
14619;SDS011;32125;48.518;9.050;2023-01-19T03:38:57;32.23;;;19.77;;
14619;SDS011;32125;48.518;9.050;2023-01-19T03:41:24;32.83;;;19.90;;
14619;SDS011;32125;48.518;9.050;2023-01-19T03:43:52;31.60;;;20.97;;
14619;SDS011;32125;48.518;9.050;2023-01-19T03:46:19;32.43;;;20.17;;
14619;SDS011;32125;48.518;9.050;2023-01-19T03:48:46;28.30;;;18.13;;
14619;SDS011;32125;48.518;9.050;2023-01-19T03:51:15;25.90;;;16.50;;
14619;SDS011;32125;48.518;9.050;2023-01-19T03:53:41;24.07;;;16.80;;
14619;SDS011;32125;48.518;9.050;2023-01-19T03:56:10;26.00;;;17.30;;
14619;SDS011;32125;48.518;9.050;2023-01-19T03:58:47;26.20;;;17.70;;
14619;SDS011;32125;48.518;9.050;2023-01-19T04:01:14;29.23;;;17.73;;
14619;SDS011;32125;48.518;9.050;2023-01-19T04:03:40;27.83;;;18.97;;
14619;SDS011;32125;48.518;9.050;2023-01-19T04:06:06;29.27;;;17.83;;
14619;SDS011;32125;48.518;9.050;2023-01-19T04:08:33;30.97;;;19.60;;
14619;SDS011;32125;48.518;9.050;2023-01-19T04:10:59;28.90;;;18.93;;
14619;SDS011;32125;48.518;9.050;2023-01-19T04:13:25;30.03;;;18.40;;
14619;SDS011;32125;48.518;9.050;2023-01-19T04:15:52;25.87;;;18.37;;
14619;SDS011;32125;48.518;9.050;2023-01-19T04:18:18;29.47;;;19.23;;
14619;SDS011;32125;48.518;9.050;2023-01-19T04:20:44;28.27;;;18.03;;
14619;SDS011;32125;48.518;9.050;2023-01-19T04:23:10;29.60;;;18.03;;
14619;SDS011;32125;48.518;9.050;2023-01-19T04:25:36;25.07;;;16.90;;
14619;SDS011;32125;48.518;9.050;2023-01-19T04:28:07;26.67;;;18.07;;
14619;SDS011;32125;48.518;9.050;2023-01-19T04:30:33;27.23;;;18.43;;
14619;SDS011;32125;48.518;9.050;2023-01-19T04:32:59;25.37;;;16.30;;
14619;SDS011;32125;48.518;9.050;2023-01-19T04:35:25;24.17;;;17.33;;
14619;SDS011;32125;48.518;9.050;2023-01-19T04:37:51;24.87;;;16.57;;
14619;SDS011;32125;48.518;9.050;2023-01-19T04:40:17;27.33;;;16.80;;
14619;SDS011;32125;48.518;9.050;2023-01-19T04:42:43;23.13;;;16.17;;
14619;SDS011;32125;48.518;9.050;2023-01-19T04:45:10;21.20;;;15.40;;
14619;SDS011;32125;48.518;9.050;2023-01-19T04:47:36;22.90;;;15.03;;
14619;SDS011;32125;48.518;9.050;2023-01-19T04:50:02;23.40;;;16.50;;
14619;SDS011;32125;48.518;9.050;2023-01-19T04:52:31;22.33;;;15.97;;
14619;SDS011;32125;48.518;9.050;2023-01-19T04:54:59;23.80;;;15.90;;
14619;SDS011;32125;48.518;9.050;2023-01-19T04:57:25;24.67;;;16.90;;
14619;SDS011;32125;48.518;9.050;2023-01-19T04:59:51;24.00;;;16.33;;
14619;SDS011;32125;48.518;9.050;2023-01-19T05:02:17;27.87;;;16.93;;
14619;SDS011;32125;48.518;9.050;2023-01-19T05:04:43;24.33;;;15.47;;
14619;SDS011;32125;48.518;9.050;2023-01-19T05:07:09;22.30;;;15.57;;
14619;SDS011;32125;48.518;9.050;2023-01-19T05:09:39;24.67;;;15.83;;
14619;SDS011;32125;48.518;9.050;2023-01-19T05:12:05;24.17;;;15.67;;
14619;SDS011;32125;48.518;9.050;2023-01-19T05:14:33;25.63;;;16.63;;
14619;SDS011;32125;48.518;9.050;2023-01-19T05:17:02;26.53;;;17.60;;
14619;SDS011;32125;48.518;9.050;2023-01-19T05:19:28;25.63;;;16.37;;
14619;SDS011;32125;48.518;9.050;2023-01-19T05:21:54;23.60;;;15.67;;
14619;SDS011;32125;48.518;9.050;2023-01-19T05:24:25;26.53;;;16.77;;
14619;SDS011;32125;48.518;9.050;2023-01-19T05:26:50;24.83;;;15.50;;
14619;SDS011;32125;48.518;9.050;2023-01-19T05:29:16;26.27;;;17.33;;
14619;SDS011;32125;48.518;9.050;2023-01-19T05:31:45;24.87;;;15.93;;
14619;SDS011;32125;48.518;9.050;2023-01-19T05:34:11;22.27;;;14.80;;
14619;SDS011;32125;48.518;9.050;2023-01-19T05:36:38;24.60;;;15.60;;
14619;SDS011;32125;48.518;9.050;2023-01-19T05:39:05;22.60;;;14.60;;
14619;SDS011;32125;48.518;9.050;2023-01-19T05:41:34;23.37;;;14.97;;
14619;SDS011;32125;48.518;9.050;2023-01-19T05:44:00;22.80;;;15.27;;
14619;SDS011;32125;48.518;9.050;2023-01-19T05:46:26;23.93;;;15.33;;
14619;SDS011;32125;48.518;9.050;2023-01-19T05:48:52;22.90;;;15.70;;
14619;SDS011;32125;48.518;9.050;2023-01-19T05:51:21;24.87;;;16.10;;
14619;SDS011;32125;48.518;9.050;2023-01-19T05:53:49;23.43;;;14.77;;
14619;SDS011;32125;48.518;9.050;2023-01-19T05:56:15;30.77;;;15.53;;
14619;SDS011;32125;48.518;9.050;2023-01-19T05:58:41;23.27;;;16.53;;
14619;SDS011;32125;48.518;9.050;2023-01-19T06:01:08;22.70;;;15.27;;
14619;SDS011;32125;48.518;9.050;2023-01-19T06:03:34;25.20;;;15.07;;
14619;SDS011;32125;48.518;9.050;2023-01-19T06:06:01;25.43;;;16.63;;
14619;SDS011;32125;48.518;9.050;2023-01-19T06:08:27;22.17;;;15.13;;
14619;SDS011;32125;48.518;9.050;2023-01-19T06:10:53;22.60;;;14.40;;
14619;SDS011;32125;48.518;9.050;2023-01-19T06:13:21;20.37;;;14.77;;
14619;SDS011;32125;48.518;9.050;2023-01-19T06:15:47;25.17;;;15.37;;
14619;SDS011;32125;48.518;9.050;2023-01-19T06:18:13;22.83;;;14.63;;
14619;SDS011;32125;48.518;9.050;2023-01-19T06:20:42;21.43;;;15.07;;
14619;SDS011;32125;48.518;9.050;2023-01-19T06:23:09;26.10;;;14.57;;
14619;SDS011;32125;48.518;9.050;2023-01-19T06:25:37;23.80;;;15.07;;
14619;SDS011;32125;48.518;9.050;2023-01-19T06:28:03;23.77;;;14.87;;
14619;SDS011;32125;48.518;9.050;2023-01-19T06:30:29;26.00;;;15.00;;
14619;SDS011;32125;48.518;9.050;2023-01-19T06:32:55;23.70;;;15.63;;
14619;SDS011;32125;48.518;9.050;2023-01-19T06:35:21;24.33;;;16.20;;
14619;SDS011;32125;48.518;9.050;2023-01-19T06:37:47;26.00;;;16.07;;
14619;SDS011;32125;48.518;9.050;2023-01-19T06:40:13;25.87;;;15.87;;
14619;SDS011;32125;48.518;9.050;2023-01-19T06:42:39;24.20;;;15.40;;
14619;SDS011;32125;48.518;9.050;2023-01-19T06:45:08;28.77;;;16.70;;
14619;SDS011;32125;48.518;9.050;2023-01-19T06:47:36;31.97;;;17.40;;
14619;SDS011;32125;48.518;9.050;2023-01-19T06:50:02;24.77;;;15.90;;
14619;SDS011;32125;48.518;9.050;2023-01-19T06:52:30;28.33;;;17.63;;
14619;SDS011;32125;48.518;9.050;2023-01-19T06:54:56;29.17;;;17.27;;
14619;SDS011;32125;48.518;9.050;2023-01-19T06:57:22;27.50;;;16.77;;
14619;SDS011;32125;48.518;9.050;2023-01-19T06:59:49;25.10;;;15.80;;
14619;SDS011;32125;48.518;9.050;2023-01-19T07:02:15;29.53;;;16.90;;
14619;SDS011;32125;48.518;9.050;2023-01-19T07:04:44;26.10;;;16.87;;
14619;SDS011;32125;48.518;9.050;2023-01-19T07:07:10;25.13;;;16.20;;
14619;SDS011;32125;48.518;9.050;2023-01-19T07:09:39;25.07;;;16.47;;
14619;SDS011;32125;48.518;9.050;2023-01-19T07:12:09;26.67;;;16.70;;
14619;SDS011;32125;48.518;9.050;2023-01-19T07:14:35;25.97;;;16.77;;
14619;SDS011;32125;48.518;9.050;2023-01-19T07:17:01;25.57;;;17.07;;
14619;SDS011;32125;48.518;9.050;2023-01-19T07:19:27;27.53;;;17.80;;
14619;SDS011;32125;48.518;9.050;2023-01-19T07:21:53;27.10;;;17.50;;
14619;SDS011;32125;48.518;9.050;2023-01-19T07:24:19;28.50;;;17.03;;
14619;SDS011;32125;48.518;9.050;2023-01-19T07:26:46;26.23;;;15.93;;
14619;SDS011;32125;48.518;9.050;2023-01-19T07:29:12;26.60;;;16.30;;
14619;SDS011;32125;48.518;9.050;2023-01-19T07:31:41;26.63;;;17.00;;
14619;SDS011;32125;48.518;9.050;2023-01-19T07:34:09;23.97;;;16.30;;
14619;SDS011;32125;48.518;9.050;2023-01-19T07:36:35;25.70;;;16.27;;
14619;SDS011;32125;48.518;9.050;2023-01-19T07:39:01;25.50;;;15.63;;
14619;SDS011;32125;48.518;9.050;2023-01-19T07:41:27;27.70;;;15.63;;
14619;SDS011;32125;48.518;9.050;2023-01-19T07:43:53;23.47;;;15.37;;
14619;SDS011;32125;48.518;9.050;2023-01-19T07:46:19;24.27;;;15.53;;
14619;SDS011;32125;48.518;9.050;2023-01-19T07:48:45;26.27;;;16.50;;
14619;SDS011;32125;48.518;9.050;2023-01-19T07:51:11;23.07;;;15.87;;
14619;SDS011;32125;48.518;9.050;2023-01-19T07:53:42;24.97;;;15.70;;
14619;SDS011;32125;48.518;9.050;2023-01-19T07:56:11;23.03;;;15.43;;
14619;SDS011;32125;48.518;9.050;2023-01-19T07:58:37;28.27;;;15.63;;
14619;SDS011;32125;48.518;9.050;2023-01-19T08:01:04;25.83;;;15.83;;
14619;SDS011;32125;48.518;9.050;2023-01-19T08:03:41;24.03;;;15.93;;
14619;SDS011;32125;48.518;9.050;2023-01-19T08:06:10;23.70;;;14.87;;
14619;SDS011;32125;48.518;9.050;2023-01-19T08:08:48;22.23;;;14.40;;
14619;SDS011;32125;48.518;9.050;2023-01-19T08:11:14;25.20;;;14.27;;
14619;SDS011;32125;48.518;9.050;2023-01-19T08:13:40;18.27;;;12.80;;
14619;SDS011;32125;48.518;9.050;2023-01-19T08:16:07;24.97;;;14.33;;
14619;SDS011;32125;48.518;9.050;2023-01-19T08:18:33;19.17;;;12.43;;
14619;SDS011;32125;48.518;9.050;2023-01-19T08:21:01;21.17;;;12.30;;
14619;SDS011;32125;48.518;9.050;2023-01-19T08:23:28;18.37;;;11.97;;
14619;SDS011;32125;48.518;9.050;2023-01-19T08:25:54;20.00;;;12.03;;
14619;SDS011;32125;48.518;9.050;2023-01-19T08:28:21;16.20;;;11.30;;
14619;SDS011;32125;48.518;9.050;2023-01-19T08:30:47;16.83;;;11.03;;
14619;SDS011;32125;48.518;9.050;2023-01-19T08:33:23;16.43;;;11.77;;
14619;SDS011;32125;48.518;9.050;2023-01-19T08:35:50;19.20;;;11.70;;
14619;SDS011;32125;48.518;9.050;2023-01-19T08:38:20;15.10;;;11.27;;
14619;SDS011;32125;48.518;9.050;2023-01-19T08:40:48;18.63;;;12.03;;
14619;SDS011;32125;48.518;9.050;2023-01-19T08:43:15;17.20;;;11.93;;
14619;SDS011;32125;48.518;9.050;2023-01-19T08:45:42;15.00;;;11.60;;
14619;SDS011;32125;48.518;9.050;2023-01-19T08:48:13;18.00;;;11.37;;
14619;SDS011;32125;48.518;9.050;2023-01-19T08:50:40;16.70;;;10.57;;
14619;SDS011;32125;48.518;9.050;2023-01-19T08:53:07;17.07;;;12.00;;
14619;SDS011;32125;48.518;9.050;2023-01-19T08:55:36;17.47;;;11.57;;
14619;SDS011;32125;48.518;9.050;2023-01-19T08:58:05;16.17;;;11.20;;
14619;SDS011;32125;48.518;9.050;2023-01-19T09:00:33;15.47;;;10.43;;
14619;SDS011;32125;48.518;9.050;2023-01-19T09:03:06;13.30;;;9.47;;
14619;SDS011;32125;48.518;9.050;2023-01-19T09:05:34;15.60;;;9.83;;
14619;SDS011;32125;48.518;9.050;2023-01-19T09:08:03;13.97;;;10.00;;
14619;SDS011;32125;48.518;9.050;2023-01-19T09:10:36;14.00;;;9.67;;
14619;SDS011;32125;48.518;9.050;2023-01-19T09:13:05;16.17;;;9.80;;
14619;SDS011;32125;48.518;9.050;2023-01-19T09:15:34;13.23;;;9.33;;
14619;SDS011;32125;48.518;9.050;2023-01-19T09:18:01;14.40;;;9.87;;
14619;SDS011;32125;48.518;9.050;2023-01-19T09:20:34;15.30;;;10.30;;
14619;SDS011;32125;48.518;9.050;2023-01-19T09:23:03;20.03;;;10.83;;
14619;SDS011;32125;48.518;9.050;2023-01-19T09:25:30;13.37;;;9.80;;
14619;SDS011;32125;48.518;9.050;2023-01-19T09:27:58;13.33;;;9.80;;
14619;SDS011;32125;48.518;9.050;2023-01-19T09:30:26;15.07;;;9.60;;
14619;SDS011;32125;48.518;9.050;2023-01-19T09:32:52;13.77;;;9.27;;
14619;SDS011;32125;48.518;9.050;2023-01-19T09:35:21;13.87;;;9.80;;
14619;SDS011;32125;48.518;9.050;2023-01-19T09:37:47;11.53;;;8.77;;
14619;SDS011;32125;48.518;9.050;2023-01-19T09:40:14;13.73;;;9.30;;
14619;SDS011;32125;48.518;9.050;2023-01-19T09:45:11;16.70;;;9.50;;
14619;SDS011;32125;48.518;9.050;2023-01-19T09:47:38;14.70;;;9.20;;
14619;SDS011;32125;48.518;9.050;2023-01-19T09:50:08;11.93;;;9.13;;
14619;SDS011;32125;48.518;9.050;2023-01-19T09:52:40;11.77;;;9.00;;
14619;SDS011;32125;48.518;9.050;2023-01-19T09:55:15;14.33;;;9.07;;
14619;SDS011;32125;48.518;9.050;2023-01-19T09:57:47;13.13;;;9.20;;
14619;SDS011;32125;48.518;9.050;2023-01-19T10:00:17;13.03;;;8.77;;
14619;SDS011;32125;48.518;9.050;2023-01-19T10:03:29;12.23;;;8.60;;
14619;SDS011;32125;48.518;9.050;2023-01-19T10:05:46;13.17;;;10.03;;
14619;SDS011;32125;48.518;9.050;2023-01-19T10:10:53;15.40;;;10.83;;
14619;SDS011;32125;48.518;9.050;2023-01-19T10:18:51;11.10;;;8.33;;
14619;SDS011;32125;48.518;9.050;2023-01-19T10:26:37;11.03;;;8.17;;
14619;SDS011;32125;48.518;9.050;2023-01-19T10:29:06;13.37;;;8.43;;
14619;SDS011;32125;48.518;9.050;2023-01-19T10:31:39;11.37;;;8.50;;
14619;SDS011;32125;48.518;9.050;2023-01-19T10:34:09;10.73;;;8.03;;
14619;SDS011;32125;48.518;9.050;2023-01-19T10:36:42;9.87;;;7.30;;
14619;SDS011;32125;48.518;9.050;2023-01-19T10:39:08;9.93;;;7.40;;
14619;SDS011;32125;48.518;9.050;2023-01-19T10:41:40;9.77;;;7.10;;
14619;SDS011;32125;48.518;9.050;2023-01-19T10:44:07;10.57;;;7.87;;
14619;SDS011;32125;48.518;9.050;2023-01-19T10:46:44;10.07;;;7.10;;
14619;SDS011;32125;48.518;9.050;2023-01-19T10:49:22;9.13;;;6.90;;
14619;SDS011;32125;48.518;9.050;2023-01-19T10:51:55;9.60;;;7.03;;
14619;SDS011;32125;48.518;9.050;2023-01-19T10:54:22;10.10;;;7.23;;
14619;SDS011;32125;48.518;9.050;2023-01-19T10:56:50;10.43;;;6.80;;
14619;SDS011;32125;48.518;9.050;2023-01-19T11:04:42;8.63;;;6.63;;
14619;SDS011;32125;48.518;9.050;2023-01-19T11:07:25;10.93;;;6.90;;
14619;SDS011;32125;48.518;9.050;2023-01-19T11:15:30;8.90;;;6.77;;
14619;SDS011;32125;48.518;9.050;2023-01-19T11:18:00;9.03;;;6.57;;
14619;SDS011;32125;48.518;9.050;2023-01-19T11:21:00;9.00;;;6.73;;
14619;SDS011;32125;48.518;9.050;2023-01-19T11:23:30;8.57;;;6.33;;
14619;SDS011;32125;48.518;9.050;2023-01-19T11:25:59;11.57;;;7.73;;
14619;SDS011;32125;48.518;9.050;2023-01-19T11:33:24;10.07;;;5.87;;
14619;SDS011;32125;48.518;9.050;2023-01-19T11:35:52;7.67;;;5.87;;
14619;SDS011;32125;48.518;9.050;2023-01-19T11:38:27;7.27;;;5.90;;
14619;SDS011;32125;48.518;9.050;2023-01-19T11:40:56;7.17;;;5.60;;
14619;SDS011;32125;48.518;9.050;2023-01-19T11:43:30;8.73;;;6.23;;
14619;SDS011;32125;48.518;9.050;2023-01-19T11:45:56;7.43;;;5.93;;
14619;SDS011;32125;48.518;9.050;2023-01-19T11:48:31;8.43;;;5.93;;
14619;SDS011;32125;48.518;9.050;2023-01-19T11:51:01;8.00;;;5.37;;
14619;SDS011;32125;48.518;9.050;2023-01-19T11:53:35;7.47;;;5.63;;
14619;SDS011;32125;48.518;9.050;2023-01-19T11:56:07;8.70;;;5.30;;
14619;SDS011;32125;48.518;9.050;2023-01-19T11:58:38;6.63;;;5.67;;
14619;SDS011;32125;48.518;9.050;2023-01-19T12:01:44;10.03;;;5.67;;
14619;SDS011;32125;48.518;9.050;2023-01-19T12:04:03;6.20;;;5.60;;
14619;SDS011;32125;48.518;9.050;2023-01-19T12:06:40;7.83;;;5.70;;
14619;SDS011;32125;48.518;9.050;2023-01-19T12:09:18;5.90;;;5.10;;
14619;SDS011;32125;48.518;9.050;2023-01-19T12:11:47;7.23;;;5.43;;
14619;SDS011;32125;48.518;9.050;2023-01-19T12:14:18;6.57;;;5.80;;
14619;SDS011;32125;48.518;9.050;2023-01-19T12:16:46;8.13;;;5.93;;
14619;SDS011;32125;48.518;9.050;2023-01-19T12:19:17;7.90;;;5.90;;
14619;SDS011;32125;48.518;9.050;2023-01-19T12:21:43;9.30;;;6.23;;
14619;SDS011;32125;48.518;9.050;2023-01-19T12:27:23;8.67;;;5.50;;
14619;SDS011;32125;48.518;9.050;2023-01-19T12:30:04;7.67;;;5.50;;
14619;SDS011;32125;48.518;9.050;2023-01-19T12:32:45;9.80;;;5.67;;
14619;SDS011;32125;48.518;9.050;2023-01-19T12:43:40;7.70;;;5.80;;
14619;SDS011;32125;48.518;9.050;2023-01-19T12:46:30;8.67;;;5.70;;
14619;SDS011;32125;48.518;9.050;2023-01-19T12:51:49;6.00;;;4.90;;
14619;SDS011;32125;48.518;9.050;2023-01-19T12:57:01;6.77;;;5.10;;
14619;SDS011;32125;48.518;9.050;2023-01-19T12:59:30;6.87;;;4.97;;
14619;SDS011;32125;48.518;9.050;2023-01-19T13:07:29;7.53;;;4.77;;
14619;SDS011;32125;48.518;9.050;2023-01-19T13:09:55;7.20;;;4.30;;
14619;SDS011;32125;48.518;9.050;2023-01-19T13:14:47;5.30;;;4.30;;
14619;SDS011;32125;48.518;9.050;2023-01-19T13:19:44;6.00;;;4.67;;
14619;SDS011;32125;48.518;9.050;2023-01-19T13:25:29;8.53;;;4.40;;
14619;SDS011;32125;48.518;9.050;2023-01-19T13:27:55;7.90;;;4.17;;
14619;SDS011;32125;48.518;9.050;2023-01-19T13:30:23;4.60;;;3.80;;
14619;SDS011;32125;48.518;9.050;2023-01-19T13:32:52;5.87;;;4.10;;
14619;SDS011;32125;48.518;9.050;2023-01-19T13:35:21;5.13;;;4.50;;
14619;SDS011;32125;48.518;9.050;2023-01-19T13:37:47;5.90;;;4.10;;
14619;SDS011;32125;48.518;9.050;2023-01-19T13:40:22;6.17;;;4.20;;
14619;SDS011;32125;48.518;9.050;2023-01-19T13:42:51;5.40;;;4.07;;
14619;SDS011;32125;48.518;9.050;2023-01-19T13:47:50;6.87;;;4.03;;
14619;SDS011;32125;48.518;9.050;2023-01-19T13:50:18;4.63;;;3.60;;
14619;SDS011;32125;48.518;9.050;2023-01-19T13:52:44;5.17;;;3.93;;
14619;SDS011;32125;48.518;9.050;2023-01-19T13:55:14;4.93;;;3.97;;
14619;SDS011;32125;48.518;9.050;2023-01-19T13:57:41;6.60;;;4.13;;
14619;SDS011;32125;48.518;9.050;2023-01-19T14:02:55;8.13;;;4.20;;
14619;SDS011;32125;48.518;9.050;2023-01-19T14:10:30;9.70;;;4.40;;
14619;SDS011;32125;48.518;9.050;2023-01-19T14:12:57;9.03;;;4.77;;
14619;SDS011;32125;48.518;9.050;2023-01-19T14:15:23;6.43;;;5.10;;
14619;SDS011;32125;48.518;9.050;2023-01-19T14:18:06;6.77;;;4.87;;
14619;SDS011;32125;48.518;9.050;2023-01-19T14:20:33;9.20;;;6.57;;
14619;SDS011;32125;48.518;9.050;2023-01-19T14:23:01;10.23;;;4.50;;
14619;SDS011;32125;48.518;9.050;2023-01-19T14:31:40;7.13;;;5.03;;
14619;SDS011;32125;48.518;9.050;2023-01-19T14:33:57;11.70;;;6.63;;
14619;SDS011;32125;48.518;9.050;2023-01-19T14:36:28;6.20;;;5.03;;
14619;SDS011;32125;48.518;9.050;2023-01-19T14:39:00;5.37;;;4.83;;
14619;SDS011;32125;48.518;9.050;2023-01-19T14:41:42;10.30;;;6.50;;
14619;SDS011;32125;48.518;9.050;2023-01-19T14:44:15;8.30;;;5.00;;
14619;SDS011;32125;48.518;9.050;2023-01-19T14:46:47;6.53;;;4.50;;
14619;SDS011;32125;48.518;9.050;2023-01-19T14:49:56;9.97;;;5.20;;
14619;SDS011;32125;48.518;9.050;2023-01-19T14:52:18;4.93;;;4.43;;
14619;SDS011;32125;48.518;9.050;2023-01-19T14:54:45;6.13;;;4.43;;
14619;SDS011;32125;48.518;9.050;2023-01-19T14:57:12;6.97;;;4.57;;
14619;SDS011;32125;48.518;9.050;2023-01-19T14:59:43;8.43;;;5.27;;
14619;SDS011;32125;48.518;9.050;2023-01-19T15:02:12;10.10;;;5.63;;
14619;SDS011;32125;48.518;9.050;2023-01-19T15:04:38;11.07;;;5.13;;
14619;SDS011;32125;48.518;9.050;2023-01-19T15:07:04;7.20;;;4.43;;
14619;SDS011;32125;48.518;9.050;2023-01-19T15:09:31;6.83;;;4.70;;
14619;SDS011;32125;48.518;9.050;2023-01-19T15:11:57;5.77;;;4.47;;
14619;SDS011;32125;48.518;9.050;2023-01-19T15:14:24;5.20;;;4.10;;
14619;SDS011;32125;48.518;9.050;2023-01-19T15:16:51;7.20;;;4.33;;
14619;SDS011;32125;48.518;9.050;2023-01-19T15:19:17;8.87;;;4.30;;
14619;SDS011;32125;48.518;9.050;2023-01-19T15:21:43;6.03;;;4.57;;
14619;SDS011;32125;48.518;9.050;2023-01-19T15:24:11;6.20;;;5.03;;
14619;SDS011;32125;48.518;9.050;2023-01-19T15:26:40;8.73;;;5.30;;
14619;SDS011;32125;48.518;9.050;2023-01-19T15:29:18;7.80;;;6.30;;
14619;SDS011;32125;48.518;9.050;2023-01-19T15:31:52;7.53;;;5.53;;
14619;SDS011;32125;48.518;9.050;2023-01-19T15:34:21;8.50;;;5.63;;
14619;SDS011;32125;48.518;9.050;2023-01-19T15:36:47;9.80;;;5.23;;
14619;SDS011;32125;48.518;9.050;2023-01-19T15:39:13;6.90;;;4.97;;
14619;SDS011;32125;48.518;9.050;2023-01-19T15:41:39;7.67;;;5.40;;
14619;SDS011;32125;48.518;9.050;2023-01-19T15:44:07;8.30;;;5.77;;
14619;SDS011;32125;48.518;9.050;2023-01-19T15:46:35;7.07;;;5.40;;
14619;SDS011;32125;48.518;9.050;2023-01-19T15:49:01;8.60;;;5.50;;
14619;SDS011;32125;48.518;9.050;2023-01-19T15:51:29;6.77;;;5.40;;
14619;SDS011;32125;48.518;9.050;2023-01-19T15:53:55;7.30;;;5.60;;
14619;SDS011;32125;48.518;9.050;2023-01-19T15:56:22;6.60;;;5.10;;
14619;SDS011;32125;48.518;9.050;2023-01-19T15:58:50;9.50;;;5.67;;
14619;SDS011;32125;48.518;9.050;2023-01-19T16:01:19;8.90;;;5.50;;
14619;SDS011;32125;48.518;9.050;2023-01-19T16:03:55;8.13;;;5.63;;
14619;SDS011;32125;48.518;9.050;2023-01-19T16:06:26;8.60;;;5.80;;
14619;SDS011;32125;48.518;9.050;2023-01-19T16:08:53;8.33;;;5.30;;
14619;SDS011;32125;48.518;9.050;2023-01-19T16:11:25;7.73;;;5.70;;
14619;SDS011;32125;48.518;9.050;2023-01-19T16:13:54;9.83;;;5.87;;
14619;SDS011;32125;48.518;9.050;2023-01-19T16:16:21;9.37;;;6.63;;
14619;SDS011;32125;48.518;9.050;2023-01-19T16:19:00;10.57;;;7.87;;
14619;SDS011;32125;48.518;9.050;2023-01-19T16:21:28;10.23;;;8.37;;